createdAt,value
2018-12-10T00:00:23.656Z,92.90
2018-12-10T00:02:57.993Z,92.90
2018-12-10T00:05:27.245Z,92.70
2018-12-10T00:07:56.516Z,92.70
2018-12-10T00:10:25.873Z,92.80
2018-12-10T00:12:55.096Z,92.80
2018-12-10T00:15:24.419Z,92.90
2018-12-10T00:17:53.679Z,93.10
2018-12-10T00:20:22.946Z,93.00
2018-12-10T00:22:52.255Z,92.90
2018-12-10T00:25:21.545Z,92.80
2018-12-10T00:27:50.872Z,93.00
2018-12-10T00:30:20.116Z,92.60
2018-12-10T00:32:49.391Z,92.70
2018-12-10T00:35:18.631Z,92.70
2018-12-10T00:37:47.947Z,92.80
2018-12-10T00:40:17.239Z,92.80
2018-12-10T00:42:46.696Z,93.00
2018-12-10T00:45:16.552Z,92.90
2018-12-10T00:47:45.768Z,92.70
2018-12-10T00:50:15.078Z,92.50
2018-12-10T00:52:44.354Z,92.40
2018-12-10T00:55:13.649Z,92.60
2018-12-10T00:57:42.966Z,91.80
2018-12-10T01:00:12.427Z,91.90
2018-12-10T01:02:41.677Z,92.10
2018-12-10T01:05:10.967Z,92.10
2018-12-10T01:07:40.219Z,92.10
2018-12-10T01:10:09.714Z,91.80
2018-12-10T01:12:39.019Z,91.90
2018-12-10T01:15:08.370Z,91.90
2018-12-10T01:17:37.640Z,91.80
2018-12-10T01:20:07.231Z,91.90
2018-12-10T01:22:36.471Z,91.70
2018-12-10T01:25:05.733Z,91.70
2018-12-10T01:27:35.110Z,91.70
2018-12-10T01:30:04.511Z,91.50
2018-12-10T01:32:33.823Z,91.50
2018-12-10T01:35:03.075Z,91.20
2018-12-10T01:37:32.348Z,91.30
2018-12-10T01:40:01.772Z,91.40
2018-12-10T01:42:31.072Z,91.50
2018-12-10T01:45:00.385Z,91.40
2018-12-10T01:47:29.815Z,91.40
2018-12-10T01:49:59.131Z,91.70
2018-12-10T01:52:28.430Z,91.30
2018-12-10T01:54:57.804Z,91.30
2018-12-10T01:57:27.112Z,91.30
2018-12-10T01:59:56.429Z,91.20
2018-12-10T02:02:25.709Z,91.10
2018-12-10T02:04:54.956Z,91.00
2018-12-10T02:07:24.204Z,90.90
2018-12-10T02:09:53.463Z,91.00
2018-12-10T02:12:22.748Z,91.20
2018-12-10T02:14:52.017Z,91.30
2018-12-10T02:17:21.271Z,91.30
2018-12-10T02:19:50.577Z,91.10
2018-12-10T02:22:19.876Z,90.90
2018-12-10T02:24:49.118Z,90.80
2018-12-10T02:27:18.379Z,90.70
2018-12-10T02:29:47.583Z,90.60
2018-12-10T02:32:16.942Z,90.50
2018-12-10T02:34:46.241Z,90.50
2018-12-10T02:37:15.526Z,90.70
2018-12-10T02:39:44.791Z,91.00
2018-12-10T02:42:14.077Z,91.20
2018-12-10T02:44:43.344Z,91.10
2018-12-10T02:47:12.648Z,91.30
2018-12-10T02:49:41.943Z,91.50
2018-12-10T02:52:11.560Z,91.50
2018-12-10T02:54:40.812Z,91.70
2018-12-10T02:57:10.136Z,92.00
2018-12-10T02:59:39.448Z,92.00
2018-12-10T03:02:08.803Z,91.70
2018-12-10T03:04:38.107Z,91.40
2018-12-10T03:07:07.390Z,91.20
2018-12-10T03:09:36.656Z,91.00
2018-12-10T03:12:05.895Z,90.90
2018-12-10T03:14:35.210Z,90.70
2018-12-10T03:17:04.559Z,90.50
2018-12-10T03:19:34.732Z,90.30
2018-12-10T03:22:04.071Z,90.50
2018-12-10T03:24:33.379Z,90.40
2018-12-10T03:27:02.616Z,90.50
2018-12-10T03:29:31.916Z,90.40
2018-12-10T03:32:01.178Z,90.30
2018-12-10T03:34:30.481Z,90.30
2018-12-10T03:36:59.754Z,90.30
2018-12-10T03:39:29.109Z,90.30
2018-12-10T03:41:58.370Z,90.10
2018-12-10T03:44:27.706Z,90.20
2018-12-10T03:46:57.019Z,90.00
2018-12-10T03:49:26.269Z,89.90
2018-12-10T03:51:55.520Z,90.00
2018-12-10T03:54:24.820Z,89.70
2018-12-10T03:56:54.110Z,89.00
2018-12-10T03:59:23.414Z,89.30
2018-12-10T04:01:52.687Z,89.10
2018-12-10T04:04:21.979Z,89.10
2018-12-10T04:06:51.243Z,88.90
2018-12-10T04:09:20.666Z,89.10
2018-12-10T04:11:50.011Z,89.50
2018-12-10T04:14:19.244Z,89.40
2018-12-10T04:16:48.518Z,89.70
2018-12-10T04:19:17.771Z,89.50
2018-12-10T04:21:47.983Z,89.30
2018-12-10T04:24:17.377Z,89.30
2018-12-10T04:26:46.656Z,89.30
2018-12-10T04:29:15.959Z,89.40
2018-12-10T04:31:45.211Z,89.10
2018-12-10T04:34:14.476Z,89.00
2018-12-10T04:36:43.753Z,89.20
2018-12-10T04:39:13.021Z,89.10
2018-12-10T04:41:42.348Z,89.20
2018-12-10T04:44:11.596Z,88.70
2018-12-10T04:46:40.864Z,88.80
2018-12-10T04:49:10.148Z,88.90
2018-12-10T04:51:39.450Z,88.30
2018-12-10T04:54:08.728Z,88.90
2018-12-10T04:56:38.095Z,88.60
2018-12-10T04:59:07.379Z,88.70
2018-12-10T05:01:36.642Z,88.60
2018-12-10T05:04:05.942Z,88.80
2018-12-10T05:06:35.798Z,88.40
2018-12-10T05:09:07.341Z,88.40
2018-12-10T05:11:37.543Z,88.60
2018-12-10T05:14:06.896Z,88.60
2018-12-10T05:16:36.163Z,88.80
2018-12-10T05:19:05.508Z,88.60
2018-12-10T05:21:34.763Z,88.40
2018-12-10T05:24:04.033Z,88.60
2018-12-10T05:26:33.357Z,88.70
2018-12-10T05:29:02.574Z,88.20
2018-12-10T05:31:31.857Z,88.60
2018-12-10T05:34:01.131Z,88.60
2018-12-10T05:36:30.384Z,88.80
2018-12-10T05:38:59.684Z,88.90
2018-12-10T05:41:29.932Z,88.70
2018-12-10T05:43:59.170Z,88.90
2018-12-10T05:46:28.455Z,89.00
2018-12-10T05:48:57.729Z,88.90
2018-12-10T05:51:26.986Z,88.90
2018-12-10T05:53:57.114Z,88.80
2018-12-10T05:56:26.415Z,88.40
2018-12-10T05:58:55.651Z,87.90
2018-12-10T06:01:25.005Z,88.00
2018-12-10T06:03:54.280Z,88.30
2018-12-10T06:06:23.551Z,88.30
2018-12-10T06:08:52.761Z,88.40
2018-12-10T06:11:22.022Z,88.20
2018-12-10T06:13:51.276Z,88.20
2018-12-10T06:16:20.618Z,87.70
2018-12-10T06:18:49.909Z,88.00
2018-12-10T06:21:19.195Z,87.70
2018-12-10T06:23:49.051Z,87.90
2018-12-10T06:26:18.374Z,87.90
2018-12-10T06:28:47.676Z,87.00
2018-12-10T06:31:16.980Z,86.40
2018-12-10T06:33:46.543Z,86.90
2018-12-10T06:36:15.768Z,86.80
2018-12-10T06:38:45.068Z,87.10
2018-12-10T06:41:14.356Z,87.80
2018-12-10T06:43:43.758Z,88.30
2018-12-10T06:46:13.060Z,88.20
2018-12-10T06:48:42.355Z,88.20
2018-12-10T06:51:11.756Z,88.20
2018-12-10T06:53:41.137Z,88.70
2018-12-10T06:56:10.472Z,88.10
2018-12-10T06:58:40.069Z,87.90
2018-12-10T07:01:09.301Z,88.60
2018-12-10T07:03:38.656Z,89.20
2018-12-10T07:06:07.918Z,90.10
2018-12-10T07:08:37.177Z,90.20
2018-12-10T07:11:06.552Z,90.20
2018-12-10T07:13:35.981Z,90.30
2018-12-10T07:16:05.333Z,90.30
2018-12-10T07:18:34.630Z,90.10
2018-12-10T07:21:03.875Z,90.10
2018-12-10T07:23:33.186Z,90.00
2018-12-10T07:26:03.137Z,90.00
2018-12-10T07:28:32.485Z,90.10
2018-12-10T07:31:01.743Z,90.10
2018-12-10T07:33:31.040Z,90.10
2018-12-10T07:36:00.373Z,90.20
2018-12-10T07:38:29.725Z,90.10
2018-12-10T07:40:58.963Z,90.20
2018-12-10T07:43:28.315Z,90.40
2018-12-10T07:45:57.587Z,90.40
2018-12-10T07:48:26.908Z,90.30
2018-12-10T07:50:56.200Z,90.60
2018-12-10T07:53:25.543Z,90.80
2018-12-10T07:55:54.778Z,90.60
2018-12-10T07:58:24.059Z,90.50
2018-12-10T08:00:53.346Z,90.50
2018-12-10T08:03:22.653Z,90.70
2018-12-10T08:05:51.975Z,90.90
2018-12-10T08:08:21.544Z,91.00
2018-12-10T08:10:50.805Z,91.20
2018-12-10T08:13:20.139Z,91.20
2018-12-10T08:15:49.394Z,91.20
2018-12-10T08:18:18.620Z,91.50
2018-12-10T08:20:47.941Z,91.40
2018-12-10T08:23:17.226Z,91.40
2018-12-10T08:25:46.831Z,92.00
2018-12-10T08:28:16.087Z,92.20
2018-12-10T08:30:45.351Z,92.00
2018-12-10T08:33:14.623Z,91.10
2018-12-10T08:35:43.907Z,92.20
2018-12-10T08:38:13.196Z,92.60
2018-12-10T08:40:42.927Z,93.00
2018-12-10T08:43:13.063Z,93.10
2018-12-10T08:45:42.315Z,93.30
2018-12-10T08:48:11.611Z,93.40
2018-12-10T08:50:40.923Z,93.40
2018-12-10T08:53:10.259Z,93.60
2018-12-10T08:55:39.507Z,94.00
2018-12-10T08:58:08.823Z,93.90
2018-12-10T09:00:38.118Z,94.00
2018-12-10T09:03:07.345Z,94.00
2018-12-10T09:05:36.691Z,93.60
2018-12-10T09:08:06.573Z,94.70
2018-12-10T09:10:35.904Z,95.30
2018-12-10T09:13:05.203Z,95.40
2018-12-10T09:15:34.570Z,95.50
2018-12-10T09:18:03.863Z,95.50
2018-12-10T09:20:33.131Z,95.60
2018-12-10T09:23:02.432Z,95.50
2018-12-10T09:25:31.763Z,95.50
2018-12-10T09:28:01.034Z,95.50
2018-12-10T09:30:30.305Z,95.90
2018-12-10T09:32:59.668Z,95.50
2018-12-10T09:35:29.126Z,95.60
2018-12-10T09:37:58.541Z,95.50
2018-12-10T09:40:28.101Z,95.80
2018-12-10T09:42:57.467Z,95.00
2018-12-10T09:45:26.775Z,94.80
2018-12-10T09:47:56.111Z,95.20
2018-12-10T09:50:25.571Z,95.10
2018-12-10T09:52:55.068Z,95.10
2018-12-10T09:55:24.531Z,95.40
2018-12-10T09:57:53.878Z,95.60
2018-12-10T10:00:23.214Z,95.80
2018-12-10T10:02:52.584Z,95.70
2018-12-10T10:05:21.931Z,95.50
2018-12-10T10:07:51.187Z,93.90
2018-12-10T10:10:21.207Z,92.60
2018-12-10T10:12:50.986Z,92.10
2018-12-10T10:15:20.254Z,91.50
2018-12-10T10:17:49.953Z,88.90
2018-12-10T10:20:19.269Z,87.70
2018-12-10T10:22:48.598Z,88.40
2018-12-10T10:25:17.874Z,90.90
2018-12-10T10:27:47.199Z,91.20
2018-12-10T10:30:16.765Z,90.70
2018-12-10T10:32:46.047Z,90.30
2018-12-10T10:35:15.582Z,89.50
2018-12-10T10:37:44.875Z,89.10
2018-12-10T10:40:14.148Z,86.40
2018-12-10T10:42:43.465Z,85.40
2018-12-10T10:45:12.818Z,84.70
2018-12-10T10:47:42.119Z,84.70
2018-12-10T10:50:11.435Z,82.90
2018-12-10T10:52:40.711Z,81.30
2018-12-10T10:55:10.183Z,80.40
2018-12-10T10:57:39.465Z,80.70
2018-12-10T11:00:15.890Z,78.80
2018-12-10T11:02:49.235Z,78.40
2018-12-10T11:05:18.478Z,75.10
2018-12-10T11:07:47.726Z,73.40
2018-12-10T11:10:16.979Z,68.60
2018-12-10T11:12:46.234Z,66.70
2018-12-10T11:15:15.569Z,65.50
2018-12-10T11:17:44.828Z,65.60
2018-12-10T11:20:14.140Z,62.70
2018-12-10T11:22:49.818Z,62.30
2018-12-10T11:25:19.127Z,63.00
2018-12-10T11:27:48.343Z,61.80
2018-12-10T11:30:17.626Z,60.80
2018-12-10T11:32:47.982Z,60.50
2018-12-10T11:35:17.315Z,61.20
2018-12-10T11:37:46.582Z,61.10
2018-12-10T11:40:15.889Z,59.80
2018-12-10T11:42:45.129Z,61.40
2018-12-10T11:45:14.441Z,61.40
2018-12-10T11:47:43.667Z,63.70
2018-12-10T11:50:13.075Z,61.00
2018-12-10T11:52:42.445Z,62.10
2018-12-10T11:55:11.713Z,63.50
2018-12-10T11:57:40.978Z,60.50
2018-12-10T12:00:11.075Z,63.20
2018-12-10T12:02:40.367Z,62.20
2018-12-10T12:05:09.682Z,60.20
2018-12-10T12:07:38.951Z,60.80
2018-12-10T12:10:09.330Z,60.10
2018-12-10T12:12:38.571Z,58.70
2018-12-10T12:15:07.943Z,58.40
2018-12-10T12:17:37.216Z,63.50
2018-12-10T12:20:08.303Z,66.70
2018-12-10T12:22:37.578Z,67.50
2018-12-10T12:25:07.567Z,68.20
2018-12-10T12:27:36.858Z,68.50
2018-12-10T12:30:07.667Z,68.80
2018-12-10T12:32:36.901Z,67.60
2018-12-10T12:35:06.738Z,69.10
2018-12-10T12:37:36.070Z,69.00
2018-12-10T12:40:05.591Z,67.80
2018-12-10T12:42:34.803Z,68.30
2018-12-10T12:45:04.038Z,68.20
2018-12-10T12:47:33.377Z,66.00
2018-12-10T12:50:02.635Z,65.20
2018-12-10T12:52:31.910Z,65.90
2018-12-10T12:55:01.219Z,66.00
2018-12-10T12:57:30.418Z,65.70
2018-12-10T12:59:59.668Z,65.20
2018-12-10T13:02:28.901Z,63.70
2018-12-10T13:04:58.194Z,63.50
2018-12-10T13:07:27.422Z,62.80
2018-12-10T13:09:56.811Z,63.30
2018-12-10T13:12:26.102Z,63.00
2018-12-10T13:14:55.355Z,63.50
2018-12-10T13:17:24.702Z,62.10
2018-12-10T13:19:56.854Z,61.00
2018-12-10T13:22:26.102Z,61.50
2018-12-10T13:24:55.350Z,61.10
2018-12-10T13:27:24.595Z,61.30
2018-12-10T13:29:53.814Z,62.10
2018-12-10T13:32:23.147Z,61.80
2018-12-10T13:34:52.436Z,61.90
2018-12-10T13:37:21.672Z,62.00
2018-12-10T13:39:50.951Z,62.60
2018-12-10T13:42:20.214Z,61.20
2018-12-10T13:44:49.485Z,60.70
2018-12-10T13:47:18.757Z,61.00
2018-12-10T13:49:47.983Z,60.70
2018-12-10T13:52:17.309Z,60.60
2018-12-10T13:54:46.667Z,60.10
2018-12-10T13:57:22.369Z,60.40
2018-12-10T13:59:51.853Z,61.90
2018-12-10T14:02:21.099Z,61.90
2018-12-10T14:04:55.719Z,61.60
2018-12-10T14:07:25.147Z,61.50
2018-12-10T14:09:54.568Z,62.80
2018-12-10T14:12:23.942Z,61.30
2018-12-10T14:14:53.246Z,60.80
2018-12-10T14:17:22.602Z,66.00
2018-12-10T14:19:51.898Z,67.20
2018-12-10T14:22:22.012Z,69.20
2018-12-10T14:24:51.369Z,66.90
2018-12-10T14:27:20.671Z,65.50
2018-12-10T14:29:49.946Z,65.80
2018-12-10T14:32:19.223Z,66.40
2018-12-10T14:34:48.479Z,64.80
2018-12-10T14:37:17.746Z,66.00
2018-12-10T14:39:46.963Z,65.80
2018-12-10T14:42:23.950Z,66.10
2018-12-10T14:44:53.309Z,66.90
2018-12-10T14:47:22.554Z,66.40
2018-12-10T14:49:51.820Z,66.20
2018-12-10T14:52:21.083Z,64.30
2018-12-10T14:54:50.327Z,67.00
2018-12-10T14:57:19.624Z,67.40
2018-12-10T14:59:48.882Z,68.80
2018-12-10T15:02:18.191Z,68.90
2018-12-10T15:04:48.816Z,70.10
2018-12-10T15:07:18.460Z,69.80
2018-12-10T15:09:47.891Z,68.20
2018-12-10T15:12:19.183Z,68.90
2018-12-10T15:14:48.684Z,69.70
2018-12-10T15:17:18.653Z,70.70
2018-12-10T15:19:48.193Z,71.30
2018-12-10T15:22:17.444Z,72.20
2018-12-10T15:24:46.782Z,72.40
2018-12-10T15:27:16.942Z,73.20
2018-12-10T15:29:46.193Z,74.00
2018-12-10T15:32:15.474Z,74.20
2018-12-10T15:34:46.698Z,74.90
2018-12-10T15:37:16.531Z,76.20
2018-12-10T15:39:49.818Z,77.40
2018-12-10T15:42:19.119Z,78.80
2018-12-10T15:44:48.543Z,80.00
2018-12-10T15:47:17.850Z,80.50
2018-12-10T15:49:47.139Z,81.00
2018-12-10T15:52:16.393Z,81.30
2018-12-10T15:54:45.649Z,81.70
2018-12-10T15:57:14.991Z,81.70
2018-12-10T15:59:45.211Z,81.70
2018-12-10T16:02:14.824Z,81.90
2018-12-10T16:04:44.182Z,82.10
2018-12-10T16:07:13.396Z,82.50
2018-12-10T16:09:42.696Z,82.70
2018-12-10T16:12:12.086Z,83.20
2018-12-10T16:14:41.390Z,83.80
2018-12-10T16:17:10.655Z,84.30
2018-12-10T16:19:39.900Z,84.70
2018-12-10T16:22:20.679Z,84.80
2018-12-10T16:24:53.701Z,85.10
2018-12-10T16:27:23.220Z,85.50
2018-12-10T16:29:52.461Z,86.00
2018-12-10T16:32:21.711Z,86.20
2018-12-10T16:34:51.003Z,86.50
2018-12-10T16:37:20.152Z,86.60
2018-12-10T16:39:49.374Z,86.70
2018-12-10T16:42:18.546Z,86.80
2018-12-10T16:44:47.916Z,87.30
2018-12-10T16:47:17.087Z,87.50
2018-12-10T16:49:46.316Z,87.90
2018-12-10T16:52:15.540Z,88.20
2018-12-10T16:54:44.859Z,88.50
2018-12-10T16:57:15.960Z,88.40
2018-12-10T16:59:45.614Z,88.50
2018-12-10T17:02:14.804Z,88.60
2018-12-10T17:04:44.021Z,89.10
2018-12-10T17:07:13.323Z,89.20
2018-12-10T17:09:42.847Z,89.50
2018-12-10T17:12:12.343Z,89.40
2018-12-10T17:14:41.739Z,89.60
2018-12-10T17:17:10.987Z,89.70
2018-12-10T17:19:40.269Z,89.80
2018-12-10T17:22:09.597Z,90.00
2018-12-10T17:24:38.935Z,90.00
2018-12-10T17:27:08.230Z,90.10
2018-12-10T17:29:37.569Z,90.20
2018-12-10T17:32:06.896Z,90.20
2018-12-10T17:34:36.139Z,90.30
2018-12-10T17:37:05.503Z,90.30
2018-12-10T17:39:34.734Z,90.30
2018-12-10T17:42:04.177Z,90.40
2018-12-10T17:44:34.181Z,90.40
2018-12-10T17:47:08.605Z,90.40
2018-12-10T17:49:34.991Z,90.40
2018-12-10T17:52:04.607Z,90.30
2018-12-10T17:54:33.835Z,90.20
2018-12-10T17:57:03.084Z,90.10
2018-12-10T17:59:32.356Z,90.10
2018-12-10T18:02:01.670Z,90.00
2018-12-10T18:04:31.063Z,90.00
2018-12-10T18:07:00.870Z,89.70
2018-12-10T18:09:30.050Z,89.60
2018-12-10T18:11:59.332Z,89.60
2018-12-10T18:14:28.560Z,89.80
2018-12-10T18:16:57.762Z,89.90
2018-12-10T18:19:27.000Z,89.90
2018-12-10T18:21:56.258Z,89.80
2018-12-10T18:24:25.521Z,89.80
2018-12-10T18:26:54.693Z,89.70
2018-12-10T18:29:23.898Z,89.80
2018-12-10T18:31:53.167Z,90.10
2018-12-10T18:34:22.406Z,90.00
2018-12-10T18:36:51.709Z,90.00
2018-12-10T18:39:20.885Z,90.00
2018-12-10T18:41:50.101Z,90.00
2018-12-10T18:44:19.271Z,90.00
2018-12-10T18:46:48.638Z,89.60
2018-12-10T18:49:18.072Z,89.40
2018-12-10T18:51:47.418Z,89.20
2018-12-10T18:54:16.902Z,89.00
2018-12-10T18:56:46.235Z,89.10
2018-12-10T18:59:16.707Z,88.40
2018-12-10T19:01:47.416Z,88.50
2018-12-10T19:04:18.309Z,88.30
2018-12-10T19:06:47.591Z,88.10
2018-12-10T19:09:17.109Z,88.20
2018-12-10T19:11:46.430Z,88.30
2018-12-10T19:14:15.673Z,88.10
2018-12-10T19:16:45.143Z,88.00
2018-12-10T19:19:14.387Z,88.10
2018-12-10T19:21:43.623Z,87.70
2018-12-10T19:24:13.104Z,87.40
2018-12-10T19:26:42.356Z,87.30
2018-12-10T19:29:11.702Z,87.10
2018-12-10T19:31:41.874Z,86.60
2018-12-10T19:34:11.109Z,86.40
2018-12-10T19:36:40.401Z,86.10
2018-12-10T19:39:09.811Z,85.80
2018-12-10T19:41:39.134Z,85.00
2018-12-10T19:44:08.505Z,84.60
2018-12-10T19:46:37.801Z,84.20
2018-12-10T19:49:07.144Z,83.50
2018-12-10T19:51:36.407Z,83.80
2018-12-10T19:54:05.713Z,82.70
2018-12-10T19:56:34.930Z,82.70
2018-12-10T19:59:04.197Z,82.90
2018-12-10T20:01:33.425Z,82.50
2018-12-10T20:04:02.664Z,83.10
2018-12-10T20:06:33.028Z,82.80
2018-12-10T20:09:02.418Z,81.90
2018-12-10T20:11:31.747Z,82.00
2018-12-10T20:14:01.059Z,81.90
2018-12-10T20:16:30.704Z,82.00
2018-12-10T20:19:03.836Z,82.70
2018-12-10T20:21:34.278Z,81.90
2018-12-10T20:24:03.695Z,77.90
2018-12-10T20:26:32.939Z,75.20
2018-12-10T20:29:02.169Z,73.80
2018-12-10T20:31:31.421Z,72.90
2018-12-10T20:34:00.755Z,72.50
2018-12-10T20:36:30.045Z,71.80
2018-12-10T20:38:59.325Z,72.10
2018-12-10T20:41:28.523Z,71.00
2018-12-10T20:43:57.700Z,71.20
2018-12-10T20:46:26.915Z,71.40
2018-12-10T20:48:56.212Z,70.80
2018-12-10T20:51:25.419Z,70.70
2018-12-10T20:53:54.689Z,70.70
2018-12-10T20:56:23.953Z,71.30
2018-12-10T20:58:53.169Z,69.80
2018-12-10T21:01:26.945Z,69.50
2018-12-10T21:03:56.435Z,69.30
2018-12-10T21:06:30.723Z,69.70
2018-12-10T21:08:59.852Z,69.30
2018-12-10T21:11:29.159Z,69.40
2018-12-10T21:13:58.381Z,70.70
2018-12-10T21:16:27.651Z,69.70
2018-12-10T21:18:57.234Z,68.20
2018-12-10T21:21:26.480Z,68.10
2018-12-10T21:23:55.677Z,70.60
2018-12-10T21:26:25.058Z,71.10
2018-12-10T21:28:54.234Z,69.60
2018-12-10T21:31:23.444Z,71.50
2018-12-10T21:33:52.730Z,71.70
2018-12-10T21:36:21.983Z,71.90
2018-12-10T21:38:51.332Z,72.60
2018-12-10T21:41:20.629Z,73.40
2018-12-10T21:43:49.959Z,74.10
2018-12-10T21:46:19.159Z,74.60
2018-12-10T21:48:49.026Z,75.50
2018-12-10T21:51:18.290Z,76.40
2018-12-10T21:53:47.474Z,77.20
2018-12-10T21:56:16.794Z,77.90
2018-12-10T21:58:46.151Z,79.00
2018-12-10T22:01:15.431Z,79.20
2018-12-10T22:03:44.667Z,80.00
2018-12-10T22:06:13.921Z,80.90
2018-12-10T22:08:43.188Z,81.40
2018-12-10T22:11:12.444Z,81.90
2018-12-10T22:13:41.662Z,82.20
2018-12-10T22:16:10.873Z,82.80
2018-12-10T22:18:40.111Z,83.10
2018-12-10T22:21:09.335Z,84.20
2018-12-10T22:23:38.561Z,83.90
2018-12-10T22:26:07.751Z,84.00
2018-12-10T22:28:36.966Z,83.70
2018-12-10T22:31:06.278Z,84.50
2018-12-10T22:33:35.458Z,84.50
2018-12-10T22:36:04.688Z,84.30
2018-12-10T22:38:33.911Z,84.30
2018-12-10T22:41:03.114Z,84.20
2018-12-10T22:43:32.366Z,83.70
2018-12-10T22:46:02.570Z,83.30
2018-12-10T22:48:31.835Z,82.70
2018-12-10T22:51:01.055Z,82.00
2018-12-10T22:53:30.299Z,80.80
2018-12-10T22:55:59.538Z,79.80
2018-12-10T22:58:28.770Z,79.90
2018-12-10T23:00:58.092Z,80.30
2018-12-10T23:03:27.959Z,79.50
2018-12-10T23:05:57.135Z,79.50
2018-12-10T23:08:26.486Z,79.10
2018-12-10T23:10:55.679Z,79.00
2018-12-10T23:13:24.854Z,79.50
2018-12-10T23:15:54.094Z,79.60
2018-12-10T23:18:23.361Z,79.70
2018-12-10T23:20:52.645Z,80.10
2018-12-10T23:23:21.993Z,80.30
2018-12-10T23:25:51.170Z,79.90
2018-12-10T23:28:20.483Z,80.90
2018-12-10T23:30:49.724Z,80.10
2018-12-10T23:33:19.021Z,79.80
2018-12-10T23:35:48.227Z,79.90
2018-12-10T23:38:17.603Z,79.50
2018-12-10T23:40:46.850Z,78.90
2018-12-10T23:43:21.075Z,78.70
2018-12-10T23:45:50.335Z,78.10
2018-12-10T23:48:19.554Z,77.40
2018-12-10T23:50:48.787Z,76.60
2018-12-10T23:53:18.058Z,76.80
2018-12-10T23:55:47.299Z,76.90
2018-12-10T23:58:17.705Z,77.10
